Time,TemperatureF,DewpointF,PressureIn,WindDirection,WindDirectionDegrees,WindSpeedMPH,WindSpeedGustMPH,Humidity,HourlyPrecipIn,Conditions,Clouds,dailyrainin,SoftwareType,DateUTC
2013-07-12 00:05:00,78.0,75.5,29.93,NW,312,6.0,7.0,92,0.00,,,0.00,Wunderground v.1.15,2013-07-12 04:05:00,
2013-07-12 00:10:00,78.1,75.6,29.93,WNW,290,5.0,5.0,92,0.00,,,0.00,Wunderground v.1.15,2013-07-12 04:10:00,
2013-07-12 00:15:00,78.1,75.6,29.93,WNW,290,5.0,7.0,92,0.00,,,0.00,Wunderground v.1.15,2013-07-12 04:15:00,
2013-07-12 00:20:00,78.2,75.7,29.92,WNW,285,5.0,5.0,92,0.00,,,0.00,Wunderground v.1.15,2013-07-12 04:20:00,
2013-07-12 00:25:00,78.2,75.7,29.92,West,278,5.0,5.0,92,0.00,,,0.00,Wunderground v.1.15,2013-07-12 04:25:00,
2013-07-12 00:35:00,78.1,75.3,29.92,WNW,300,3.0,4.0,91,0.00,,,0.00,Wunderground v.1.15,2013-07-12 04:35:00,
2013-07-12 00:40:00,78.2,75.4,29.92,WNW,284,2.0,2.0,91,0.00,,,0.00,Wunderground v.1.15,2013-07-12 04:40:00,
2013-07-12 00:45:00,78.2,75.4,29.92,WNW,289,2.0,4.0,91,0.00,,,0.00,Wunderground v.1.15,2013-07-12 04:45:00,
2013-07-12 00:55:00,78.2,75.4,29.92,WNW,295,1.0,2.0,91,0.00,,,0.00,Wunderground v.1.15,2013-07-12 04:55:00,
2013-07-12 01:00:00,78.2,75.4,29.92,WNW,294,0.0,0.0,91,0.00,,,0.00,Wunderground v.1.15,2013-07-12 05:00:00,
2013-07-12 01:10:00,78.2,75.4,29.92,WNW,303,0.0,0.0,91,0.00,,,0.00,Wunderground v.1.15,2013-07-12 05:10:00,
2013-07-12 01:20:00,78.2,75.4,29.92,NW,310,1.0,4.0,91,0.00,,,0.00,Wunderground v.1.15,2013-07-12 05:20:00,
2013-07-12 01:25:00,78.2,75.4,29.92,NW,313,1.0,6.0,91,0.00,,,0.00,Wunderground v.1.15,2013-07-12 05:25:00,
2013-07-12 01:35:00,78.4,75.6,29.92,NW,312,2.0,8.0,91,0.00,,,0.00,Wunderground v.1.15,2013-07-12 05:35:00,
2013-07-12 01:40:00,78.5,75.7,29.92,NW,325,3.0,3.0,91,0.00,,,0.00,Wunderground v.1.15,2013-07-12 05:40:00,
2013-07-12 01:50:00,78.4,75.9,29.92,NW,307,3.0,3.0,92,0.00,,,0.00,Wunderground v.1.15,2013-07-12 05:50:00,
2013-07-12 01:55:00,78.3,75.8,29.92,NW,313,2.0,3.0,92,0.00,,,0.00,Wunderground v.1.15,2013-07-12 05:55:00,
2013-07-12 02:00:00,78.3,76.1,29.91,NW,315,3.0,3.0,93,0.00,,,0.00,Wunderground v.1.15,2013-07-12 06:00:00,
2013-07-12 02:10:00,77.9,75.7,29.90,NW,310,3.0,10.0,93,0.00,,,0.00,Wunderground v.1.15,2013-07-12 06:10:00,
2013-07-12 02:15:00,77.7,75.5,29.90,NW,317,5.0,10.0,93,0.00,,,0.00,Wunderground v.1.15,2013-07-12 06:15:00,
2013-07-12 02:20:00,77.6,75.4,29.90,NNW,331,3.0,3.0,93,0.00,,,0.00,Wunderground v.1.15,2013-07-12 06:20:00,
2013-07-12 02:25:00,77.5,75.3,29.90,North,9,1.0,3.0,93,0.00,,,0.00,Wunderground v.1.15,2013-07-12 06:25:00,
2013-07-12 02:35:00,77.0,74.8,29.89,NNW,338,1.0,1.0,93,0.00,,,0.00,Wunderground v.1.15,2013-07-12 06:35:00,
2013-07-12 02:40:00,76.9,74.7,29.89,NW,317,1.0,1.0,93,0.00,,,0.00,Wunderground v.1.15,2013-07-12 06:40:00,
2013-07-12 02:50:00,76.8,74.9,29.89,NNW,336,1.0,2.0,94,0.00,,,0.00,Wunderground v.1.15,2013-07-12 06:50:00,
2013-07-12 02:55:00,76.8,74.9,29.89,NW,323,1.0,2.0,94,0.00,,,0.00,Wunderground v.1.15,2013-07-12 06:55:00,
2013-07-12 03:05:00,76.7,74.8,29.88,NW,323,0.0,1.0,94,0.00,,,0.00,Wunderground v.1.15,2013-07-12 07:05:00,
2013-07-12 03:10:00,76.7,74.8,29.88,NNW,327,0.0,0.0,94,0.00,,,0.00,Wunderground v.1.15,2013-07-12 07:10:00,
2013-07-12 03:20:00,76.8,74.9,29.88,North,355,0.0,0.0,94,0.00,,,0.00,Wunderground v.1.15,2013-07-12 07:20:00,
2013-07-12 03:25:00,77.0,75.1,29.88,North,355,1.0,1.0,94,0.00,,,0.00,Wunderground v.1.15,2013-07-12 07:25:00,
2013-07-12 03:35:00,77.0,75.1,29.88,NNW,336,0.0,5.0,94,0.00,,,0.00,Wunderground v.1.15,2013-07-12 07:35:00,
2013-07-12 03:40:00,77.1,75.2,29.88,North,9,1.0,1.0,94,0.00,,,0.00,Wunderground v.1.15,2013-07-12 07:40:00,
2013-07-12 03:45:00,77.1,75.2,29.88,North,5,2.0,2.0,94,0.00,,,0.00,Wunderground v.1.15,2013-07-12 07:45:00,
2013-07-12 03:50:00,77.1,75.2,29.88,North,355,3.0,3.0,94,0.00,,,0.00,Wunderground v.1.15,2013-07-12 07:50:00,
2013-07-12 04:00:00,77.2,75.3,29.88,NNW,347,1.0,6.0,94,0.00,,,0.00,Wunderground v.1.15,2013-07-12 08:00:00,
2013-07-12 04:05:00,77.3,75.4,29.88,North,360,2.0,6.0,94,0.00,,,0.00,Wunderground v.1.15,2013-07-12 08:05:00,
2013-07-12 04:15:00,77.0,74.8,29.88,North,355,0.0,1.0,93,0.00,,,0.00,Wunderground v.1.15,2013-07-12 08:15:00,
2013-07-12 04:20:00,76.9,74.7,29.88,NW,325,0.0,0.0,93,0.00,,,0.00,Wunderground v.1.15,2013-07-12 08:20:00,
2013-07-12 04:25:00,77.0,74.8,29.88,NNW,344,0.0,0.0,93,0.00,,,0.00,Wunderground v.1.15,2013-07-12 08:25:00,
2013-07-12 04:35:00,77.1,74.9,29.89,NNW,338,1.0,1.0,93,0.00,,,0.00,Wunderground v.1.15,2013-07-12 08:35:00,
2013-07-12 04:40:00,76.8,74.3,29.89,NW,323,1.0,1.0,92,0.00,,,0.00,Wunderground v.1.15,2013-07-12 08:40:00,
2013-07-12 04:50:00,76.6,74.1,29.88,NNW,331,0.0,0.0,92,0.00,,,0.00,Wunderground v.1.15,2013-07-12 08:50:00,
2013-07-12 04:55:00,76.6,74.1,29.88,NNW,329,0.0,0.0,92,0.00,,,0.00,Wunderground v.1.15,2013-07-12 08:55:00,
2013-07-12 05:00:00,76.5,74.0,29.88,NW,310,0.0,0.0,92,0.00,,,0.00,Wunderground v.1.15,2013-07-12 09:00:00,
2013-07-12 05:10:00,76.5,74.0,29.88,NNW,339,0.0,0.0,92,0.00,,,0.00,Wunderground v.1.15,2013-07-12 09:10:00,
2013-07-12 05:15:00,76.4,73.6,29.89,NNW,340,0.0,0.0,91,0.00,,,0.00,Wunderground v.1.15,2013-07-12 09:15:00,
2013-07-12 05:20:00,76.4,73.6,29.89,NW,323,0.0,0.0,91,0.00,,,0.00,Wunderground v.1.15,2013-07-12 09:20:00,
2013-07-12 05:30:00,76.4,73.6,29.89,NW,325,0.0,0.0,91,0.00,,,0.00,Wunderground v.1.15,2013-07-12 09:30:00,
2013-07-12 05:35:00,76.3,73.5,29.89,NNW,342,0.0,0.0,91,0.00,,,0.00,Wunderground v.1.15,2013-07-12 09:35:00,
2013-07-12 05:40:00,76.2,73.4,29.89,NW,320,0.0,0.0,91,0.00,,,0.00,Wunderground v.1.15,2013-07-12 09:40:00,
2013-07-12 05:50:00,76.0,73.2,29.89,NW,323,0.0,0.0,91,0.00,,,0.00,Wunderground v.1.15,2013-07-12 09:50:00,
2013-07-12 05:55:00,75.9,73.1,29.90,NNW,339,0.0,0.0,91,0.00,,,0.00,Wunderground v.1.15,2013-07-12 09:55:00,
2013-07-12 06:05:00,75.7,73.2,29.89,NW,311,0.0,0.0,92,0.00,,,0.00,Wunderground v.1.15,2013-07-12 10:05:00,
2013-07-12 06:10:00,75.7,73.2,29.89,NNW,338,0.0,0.0,92,0.00,,,0.00,Wunderground v.1.15,2013-07-12 10:10:00,
2013-07-12 06:20:00,75.4,72.9,29.90,NNW,337,0.0,0.0,92,0.00,,,0.00,Wunderground v.1.15,2013-07-12 10:20:00,
2013-07-12 06:25:00,75.4,72.9,29.90,North,355,0.0,0.0,92,0.00,,,0.00,Wunderground v.1.15,2013-07-12 10:25:00,
2013-07-12 06:30:00,75.4,72.9,29.90,NNW,329,0.0,0.0,92,0.00,,,0.00,Wunderground v.1.15,2013-07-12 10:30:00,
2013-07-12 06:40:00,75.2,72.7,29.90,NNW,331,1.0,1.0,92,0.00,,,0.00,Wunderground v.1.15,2013-07-12 10:40:00,
2013-07-12 06:45:00,75.3,72.8,29.90,NNW,342,1.0,1.0,92,0.00,,,0.00,Wunderground v.1.15,2013-07-12 10:45:00,
2013-07-12 06:50:00,75.4,72.9,29.90,NNW,340,0.0,0.0,92,0.00,,,0.00,Wunderground v.1.15,2013-07-12 10:50:00,
2013-07-12 06:55:00,75.4,72.9,29.90,North,5,0.0,0.0,92,0.00,,,0.00,Wunderground v.1.15,2013-07-12 10:55:00,
2013-07-12 07:05:00,75.3,72.8,29.91,NNW,340,2.0,2.0,92,0.00,,,0.00,Wunderground v.1.15,2013-07-12 11:05:00,
2013-07-12 07:10:00,75.4,73.2,29.91,NNW,348,3.0,5.0,93,0.00,,,0.00,Wunderground v.1.15,2013-07-12 11:10:00,
2013-07-12 07:20:00,75.4,73.2,29.91,North,355,3.0,6.0,93,0.00,,,0.00,Wunderground v.1.15,2013-07-12 11:20:00,
2013-07-12 07:25:00,75.4,73.2,29.91,North,5,3.0,6.0,93,0.00,,,0.00,Wunderground v.1.15,2013-07-12 11:25:00,
2013-07-12 07:35:00,75.7,73.8,29.91,North,5,6.0,16.0,94,0.00,,,0.00,Wunderground v.1.15,2013-07-12 11:35:00,
2013-07-12 07:40:00,75.6,73.8,29.92,North,9,9.0,9.0,94,0.00,,,0.00,Wunderground v.1.15,2013-07-12 11:40:00,
2013-07-12 07:45:00,75.6,73.8,29.92,North,5,11.0,11.0,94,0.00,,,0.00,Wunderground v.1.15,2013-07-12 11:45:00,
2013-07-12 07:55:00,75.6,73.8,29.92,North,5,8.0,12.0,94,0.00,,,0.00,Wunderground v.1.15,2013-07-12 11:55:00,
2013-07-12 08:00:00,75.6,73.8,29.92,NNW,327,7.0,8.0,94,0.00,,,0.00,Wunderground v.1.15,2013-07-12 12:00:00,
2013-07-12 08:05:00,75.7,73.8,29.92,North,355,7.0,8.0,94,0.00,,,0.00,Wunderground v.1.15,2013-07-12 12:05:00,
2013-07-12 08:10:00,75.8,73.9,29.92,North,5,5.0,5.0,94,0.00,,,0.00,Wunderground v.1.15,2013-07-12 12:10:00,
2013-07-12 08:20:00,76.3,74.1,29.92,NNW,346,6.0,6.0,93,0.00,,,0.00,Wunderground v.1.15,2013-07-12 12:20:00,
2013-07-12 08:25:00,76.8,74.6,29.92,North,5,3.0,6.0,93,0.00,,,0.00,Wunderground v.1.15,2013-07-12 12:25:00,
2013-07-12 08:35:00,77.1,74.3,29.92,NNE,12,2.0,2.0,91,0.00,,,0.00,Wunderground v.1.15,2013-07-12 12:35:00,
2013-07-12 08:40:00,76.9,74.1,29.92,North,5,4.0,4.0,91,0.00,,,0.00,Wunderground v.1.15,2013-07-12 12:40:00,
2013-07-12 08:50:00,76.9,74.1,29.92,North,355,0.0,0.0,91,0.00,,,0.00,Wunderground v.1.15,2013-07-12 12:50:00,
2013-07-12 08:55:00,77.2,74.0,29.92,North,5,3.0,7.0,90,0.00,,,0.00,Wunderground v.1.15,2013-07-12 12:55:00,
2013-07-12 09:05:00,78.2,74.7,29.92,North,355,4.0,8.0,89,0.00,,,0.00,Wunderground v.1.15,2013-07-12 13:05:00,
2013-07-12 09:10:00,78.7,74.8,29.92,North,5,1.0,1.0,88,0.00,,,0.00,Wunderground v.1.15,2013-07-12 13:10:00,
2013-07-12 09:15:00,79.3,75.4,29.92,NNE,16,0.0,1.0,88,0.00,,,0.00,Wunderground v.1.15,2013-07-12 13:15:00,
2013-07-12 09:20:00,79.5,74.6,29.92,North,9,0.0,0.0,85,0.00,,,0.00,Wunderground v.1.15,2013-07-12 13:20:00,
2013-07-12 09:30:00,79.7,74.4,29.92,North,5,0.0,0.0,84,0.00,,,0.00,Wunderground v.1.15,2013-07-12 13:30:00,
2013-07-12 09:35:00,80.0,74.4,29.92,North,355,0.0,0.0,83,0.00,,,0.00,Wunderground v.1.15,2013-07-12 13:35:00,
2013-07-12 09:45:00,80.2,74.9,29.92,North,5,0.0,0.0,84,0.00,,,0.00,Wunderground v.1.15,2013-07-12 13:45:00,
2013-07-12 09:50:00,80.4,74.4,29.92,North,360,0.0,0.0,82,0.00,,,0.00,Wunderground v.1.15,2013-07-12 13:50:00,
2013-07-12 09:55:00,80.2,74.2,29.92,North,10,0.0,0.0,82,0.00,,,0.00,Wunderground v.1.15,2013-07-12 13:55:00,
2013-07-12 10:05:00,80.7,75.1,29.92,North,360,0.0,0.0,83,0.00,,,0.00,Wunderground v.1.15,2013-07-12 14:05:00,
2013-07-12 10:10:00,81.1,75.1,29.92,North,360,0.0,0.0,82,0.00,,,0.00,Wunderground v.1.15,2013-07-12 14:10:00,
2013-07-12 10:20:00,81.4,75.4,29.92,North,5,0.0,0.0,82,0.00,,,0.00,Wunderground v.1.15,2013-07-12 14:20:00,
2013-07-12 10:25:00,82.0,76.0,29.92,NW,313,0.0,0.0,82,0.00,,,0.00,Wunderground v.1.15,2013-07-12 14:25:00,
2013-07-12 10:35:00,83.0,75.8,29.92,NNW,340,0.0,0.0,79,0.00,,,0.00,Wunderground v.1.15,2013-07-12 14:35:00,
2013-07-12 10:40:00,83.0,76.2,29.92,NNE,23,0.0,0.0,80,0.00,,,0.00,Wunderground v.1.15,2013-07-12 14:40:00,
2013-07-12 10:50:00,81.1,75.1,29.92,NNE,24,0.0,0.0,82,0.00,,,0.00,Wunderground v.1.15,2013-07-12 14:50:00,
2013-07-12 10:55:00,80.7,74.7,29.91,NNE,24,0.0,0.0,82,0.00,,,0.00,Wunderground v.1.15,2013-07-12 14:55:00,
2013-07-12 11:00:00,80.6,75.0,29.92,NNE,24,0.0,0.0,83,0.00,,,0.00,Wunderground v.1.15,2013-07-12 15:00:00,
2013-07-12 11:10:00,80.9,74.9,29.92,NE,39,0.0,0.0,82,0.00,,,0.00,Wunderground v.1.15,2013-07-12 15:10:00,
2013-07-12 11:15:00,81.1,74.7,29.92,NE,39,0.0,0.0,81,0.00,,,0.00,Wunderground v.1.15,2013-07-12 15:15:00,
2013-07-12 11:20:00,81.3,75.3,29.92,NE,37,0.0,0.0,82,0.00,,,0.00,Wunderground v.1.15,2013-07-12 15:20:00,
2013-07-12 11:30:00,80.5,75.2,29.92,NE,52,3.0,3.0,84,0.00,,,0.00,Wunderground v.1.15,2013-07-12 15:30:00,
2013-07-12 11:35:00,80.3,75.0,29.92,ENE,59,2.0,3.0,84,0.00,,,0.00,Wunderground v.1.15,2013-07-12 15:35:00,
2013-07-12 11:40:00,80.2,74.9,29.92,ENE,62,0.0,0.0,84,0.00,,,0.00,Wunderground v.1.15,2013-07-12 15:40:00,
2013-07-12 11:50:00,80.1,75.2,29.91,ENE,73,2.0,2.0,85,0.00,,,0.00,Wunderground v.1.15,2013-07-12 15:50:00,
2013-07-12 11:55:00,80.1,75.2,29.91,ENE,63,2.0,6.0,85,0.00,,,0.00,Wunderground v.1.15,2013-07-12 15:55:00,
2013-07-12 12:05:00,80.2,75.3,29.91,ENE,58,3.0,6.0,85,0.00,,,0.00,Wunderground v.1.15,2013-07-12 16:05:00,
2013-07-12 12:10:00,80.2,75.6,29.91,ENE,58,5.0,6.0,86,0.00,,,0.00,Wunderground v.1.15,2013-07-12 16:10:00,
2013-07-12 12:20:00,80.2,75.3,29.91,NE,52,3.0,3.0,85,0.00,,,0.00,Wunderground v.1.15,2013-07-12 16:20:00,
2013-07-12 12:25:00,80.3,75.4,29.91,NE,42,1.0,3.0,85,0.00,,,0.00,Wunderground v.1.15,2013-07-12 16:25:00,
2013-07-12 12:30:00,80.6,75.3,29.91,NE,46,1.0,1.0,84,0.00,,,0.00,Wunderground v.1.15,2013-07-12 16:30:00,
2013-07-12 12:40:00,80.7,75.4,29.91,NE,46,0.0,0.0,84,0.00,,,0.00,Wunderground v.1.15,2013-07-12 16:40:00,
2013-07-12 12:45:00,81.1,75.8,29.91,SE,144,0.0,0.0,84,0.00,,,0.00,Wunderground v.1.15,2013-07-12 16:45:00,
2013-07-12 12:55:00,82.9,77.2,29.91,SSW,199,0.0,0.0,83,0.00,,,0.00,Wunderground v.1.15,2013-07-12 16:55:00,
2013-07-12 13:00:00,83.9,77.8,29.91,SW,223,0.0,0.0,82,0.00,,,0.00,Wunderground v.1.15,2013-07-12 17:00:00,
2013-07-12 13:05:00,84.1,77.3,29.91,SW,227,0.0,0.0,80,0.00,,,0.00,Wunderground v.1.15,2013-07-12 17:05:00,
2013-07-12 13:10:00,84.0,77.2,29.91,SSW,203,0.0,0.0,80,0.00,,,0.00,Wunderground v.1.15,2013-07-12 17:10:00,
2013-07-12 13:20:00,84.2,77.4,29.91,SSW,196,3.0,4.0,80,0.00,,,0.00,Wunderground v.1.15,2013-07-12 17:20:00,
2013-07-12 13:30:00,84.1,77.3,29.91,South,174,4.0,4.0,80,0.00,,,0.00,Wunderground v.1.15,2013-07-12 17:30:00,
2013-07-12 13:35:00,83.8,76.6,29.91,South,171,3.0,4.0,79,0.00,,,0.00,Wunderground v.1.15,2013-07-12 17:35:00,
2013-07-12 13:45:00,83.8,77.0,29.90,SSW,204,5.0,7.0,80,0.00,,,0.00,Wunderground v.1.15,2013-07-12 17:45:00,
2013-07-12 13:50:00,83.4,77.3,29.90,South,190,5.0,5.0,82,0.00,,,0.00,Wunderground v.1.15,2013-07-12 17:50:00,
2013-07-12 13:55:00,83.8,77.7,29.90,SSW,203,5.0,5.0,82,0.00,,,0.00,Wunderground v.1.15,2013-07-12 17:55:00,
2013-07-12 14:05:00,84.3,77.1,29.90,SSW,198,5.0,6.0,79,0.00,,,0.00,Wunderground v.1.15,2013-07-12 18:05:00,
2013-07-12 14:10:00,84.0,76.8,29.90,South,180,5.0,5.0,79,0.00,,,0.00,Wunderground v.1.15,2013-07-12 18:10:00,
2013-07-12 14:20:00,83.7,76.5,29.90,SSW,205,6.0,8.0,79,0.00,,,0.00,Wunderground v.1.15,2013-07-12 18:20:00,
2013-07-12 14:25:00,83.9,77.1,29.90,South,180,6.0,8.0,80,0.00,,,0.00,Wunderground v.1.15,2013-07-12 18:25:00,
2013-07-12 14:30:00,84.1,77.6,29.90,South,176,6.0,10.0,81,0.00,,,0.00,Wunderground v.1.15,2013-07-12 18:30:00,
2013-07-12 14:40:00,84.5,77.3,29.90,SSW,195,7.0,11.0,79,0.00,,,0.00,Wunderground v.1.15,2013-07-12 18:40:00,
2013-07-12 14:45:00,84.7,77.8,29.90,SSE,154,8.0,11.0,80,0.00,,,0.00,Wunderground v.1.15,2013-07-12 18:45:00,
2013-07-12 14:55:00,84.7,77.5,29.89,South,190,6.0,11.0,79,0.00,,,0.00,Wunderground v.1.15,2013-07-12 18:55:00,
2013-07-12 15:00:00,84.6,77.4,29.89,SSW,201,6.0,6.0,79,0.00,,,0.00,Wunderground v.1.15,2013-07-12 19:00:00,
2013-07-12 15:05:00,84.7,77.8,29.89,SSW,200,7.0,7.0,80,0.00,,,0.00,Wunderground v.1.15,2013-07-12 19:05:00,
2013-07-12 15:10:00,84.1,76.9,29.89,SSW,206,7.0,7.0,79,0.00,,,0.00,Wunderground v.1.15,2013-07-12 19:10:00,
2013-07-12 15:20:00,84.3,77.1,29.89,SSW,208,8.0,9.0,79,0.00,,,0.00,Wunderground v.1.15,2013-07-12 19:20:00,
2013-07-12 15:25:00,84.1,77.3,29.89,South,188,8.0,9.0,80,0.00,,,0.00,Wunderground v.1.15,2013-07-12 19:25:00,
2013-07-12 15:35:00,84.7,76.7,29.89,SW,214,8.0,8.0,77,0.00,,,0.00,Wunderground v.1.15,2013-07-12 19:35:00,
2013-07-12 15:40:00,84.7,76.7,29.89,SSW,198,9.0,9.0,77,0.00,,,0.00,Wunderground v.1.15,2013-07-12 19:40:00,
2013-07-12 15:50:00,84.4,76.4,29.88,South,191,9.0,12.0,77,0.00,,,0.00,Wunderground v.1.15,2013-07-12 19:50:00,
2013-07-12 15:55:00,84.4,76.8,29.88,SSW,194,10.0,12.0,78,0.00,,,0.00,Wunderground v.1.15,2013-07-12 19:55:00,
2013-07-12 16:05:00,84.4,76.4,29.88,SW,219,9.0,10.0,77,0.00,,,0.00,Wunderground v.1.15,2013-07-12 20:05:00,
2013-07-12 16:10:00,84.7,77.1,29.87,SSW,200,9.0,14.0,78,0.00,,,0.00,Wunderground v.1.15,2013-07-12 20:10:00,
2013-07-12 16:20:00,85.0,77.0,29.87,SW,229,10.0,10.0,77,0.00,,,0.00,Wunderground v.1.15,2013-07-12 20:20:00,
2013-07-12 16:25:00,85.1,76.7,29.87,SSW,192,10.0,11.0,76,0.00,,,0.00,Wunderground v.1.15,2013-07-12 20:25:00,
2013-07-12 16:30:00,85.0,76.2,29.87,SW,232,9.0,9.0,75,0.00,,,0.00,Wunderground v.1.15,2013-07-12 20:30:00,
2013-07-12 16:35:00,84.7,76.3,29.87,SSW,192,10.0,10.0,76,0.00,,,0.00,Wunderground v.1.15,2013-07-12 20:35:00,
2013-07-12 16:40:00,84.7,75.9,29.86,SSW,211,10.0,12.0,75,0.00,,,0.00,Wunderground v.1.15,2013-07-12 20:40:00,
2013-07-12 16:50:00,84.9,76.5,29.87,SSW,202,10.0,13.0,76,0.00,,,0.00,Wunderground v.1.15,2013-07-12 20:50:00,
2013-07-12 16:55:00,84.8,76.4,29.87,SSW,205,10.0,14.0,76,0.00,,,0.00,Wunderground v.1.15,2013-07-12 20:55:00,
2013-07-12 17:05:00,85.0,76.2,29.87,SW,216,9.0,10.0,75,0.00,,,0.00,Wunderground v.1.15,2013-07-12 21:05:00,
2013-07-12 17:15:00,85.3,76.5,29.86,SSW,206,8.0,10.0,75,0.00,,,0.00,Wunderground v.1.15,2013-07-12 21:15:00,
2013-07-12 17:20:00,85.2,76.0,29.87,SSW,194,9.0,11.0,74,0.00,,,0.00,Wunderground v.1.15,2013-07-12 21:20:00,
2013-07-12 17:30:00,84.6,75.8,29.87,SSW,193,9.0,9.0,75,0.00,,,0.00,Wunderground v.1.15,2013-07-12 21:30:00,
2013-07-12 17:35:00,84.1,74.9,29.87,SSW,209,10.0,10.0,74,0.00,,,0.00,Wunderground v.1.15,2013-07-12 21:35:00,
2013-07-12 17:45:00,83.6,75.2,29.87,SW,218,7.0,11.0,76,0.00,,,0.00,Wunderground v.1.15,2013-07-12 21:45:00,
2013-07-12 17:55:00,83.3,74.9,29.86,South,190,8.0,8.0,76,0.00,,,0.00,Wunderground v.1.15,2013-07-12 21:55:00,
2013-07-12 18:05:00,83.2,74.8,29.86,SSW,205,7.0,9.0,76,0.00,,,0.00,Wunderground v.1.15,2013-07-12 22:05:00,
2013-07-12 18:10:00,83.2,74.8,29.86,SW,234,8.0,10.0,76,0.00,,,0.00,Wunderground v.1.15,2013-07-12 22:10:00,
2013-07-12 18:20:00,83.3,74.9,29.85,West,263,9.0,9.0,76,0.00,,,0.00,Wunderground v.1.15,2013-07-12 22:20:00,
2013-07-12 18:25:00,83.1,75.1,29.85,South,191,9.0,9.0,77,0.00,,,0.00,Wunderground v.1.15,2013-07-12 22:25:00,
2013-07-12 18:35:00,82.7,74.8,29.85,WSW,242,8.0,10.0,77,0.00,,,0.00,Wunderground v.1.15,2013-07-12 22:35:00,
2013-07-12 18:40:00,82.5,74.9,29.86,SW,228,8.0,8.0,78,0.00,,,0.00,Wunderground v.1.15,2013-07-12 22:40:00,
2013-07-12 18:45:00,82.4,74.8,29.86,WSW,252,7.0,8.0,78,0.00,,,0.00,Wunderground v.1.15,2013-07-12 22:45:00,
2013-07-12 18:55:00,82.3,74.7,29.86,West,274,6.0,11.0,78,0.00,,,0.00,Wunderground v.1.15,2013-07-12 22:55:00,
2013-07-12 19:00:00,82.0,75.2,29.87,WNW,284,8.0,8.0,80,0.00,,,0.00,Wunderground v.1.15,2013-07-12 23:00:00,
2013-07-12 19:05:00,81.1,75.1,29.87,WSW,250,10.0,12.0,82,0.00,,,0.00,Wunderground v.1.15,2013-07-12 23:05:00,
2013-07-12 19:20:00,81.0,75.0,29.87,SW,223,8.0,8.0,82,0.00,,,0.00,Wunderground v.1.15,2013-07-12 23:20:00,
2013-07-12 19:25:00,80.9,74.9,29.88,West,271,5.0,8.0,82,0.00,,,0.00,Wunderground v.1.15,2013-07-12 23:25:00,
2013-07-12 19:35:00,80.9,75.2,29.88,WNW,288,7.0,7.0,83,0.00,,,0.00,Wunderground v.1.15,2013-07-12 23:35:00,
2013-07-12 19:45:00,81.0,75.3,29.88,WNW,286,7.0,7.0,83,0.00,,,0.00,Wunderground v.1.15,2013-07-12 23:45:00,
2013-07-12 19:50:00,81.0,75.3,29.87,West,270,7.0,8.0,83,0.00,,,0.00,Wunderground v.1.15,2013-07-12 23:50:00,
2013-07-12 19:55:00,81.0,75.3,29.87,WSW,239,7.0,8.0,83,0.00,,,0.00,Wunderground v.1.15,2013-07-12 23:55:00,
2013-07-12 20:05:00,81.2,75.5,29.86,West,268,6.0,6.0,83,0.00,,,0.00,Wunderground v.1.15,2013-07-13 00:05:00,
2013-07-12 20:10:00,81.2,75.5,29.86,West,270,6.0,6.0,83,0.00,,,0.00,Wunderground v.1.15,2013-07-13 00:10:00,
2013-07-12 20:20:00,81.4,75.7,29.85,WSW,254,7.0,7.0,83,0.00,,,0.00,Wunderground v.1.15,2013-07-13 00:20:00,
2013-07-12 20:25:00,81.4,75.7,29.85,WSW,258,8.0,12.0,83,0.00,,,0.00,Wunderground v.1.15,2013-07-13 00:25:00,
2013-07-12 20:35:00,81.6,75.9,29.85,West,262,10.0,13.0,83,0.00,,,0.00,Wunderground v.1.15,2013-07-13 00:35:00,
2013-07-12 20:40:00,81.5,75.8,29.85,West,260,10.0,10.0,83,0.00,,,0.00,Wunderground v.1.15,2013-07-13 00:40:00,
2013-07-12 20:50:00,81.6,76.6,29.86,West,271,8.0,8.0,85,0.00,,,0.00,Wunderground v.1.15,2013-07-13 00:50:00,
2013-07-12 20:55:00,81.5,76.6,29.86,WNW,283,7.0,8.0,85,0.00,,,0.00,Wunderground v.1.15,2013-07-13 00:55:00,
2013-07-12 21:05:00,81.3,76.4,29.86,West,275,7.0,8.0,85,0.00,,,0.00,Wunderground v.1.15,2013-07-13 01:05:00,
2013-07-12 21:10:00,81.2,76.3,29.86,West,279,7.0,7.0,85,0.00,,,0.00,Wunderground v.1.15,2013-07-13 01:10:00,
2013-07-12 21:20:00,81.1,76.2,29.87,West,273,5.0,5.0,85,0.00,,,0.00,Wunderground v.1.15,2013-07-13 01:20:00,
2013-07-12 21:30:00,81.1,76.2,29.87,WNW,287,2.0,2.0,85,0.00,,,0.00,Wunderground v.1.15,2013-07-13 01:30:00,
2013-07-12 21:35:00,81.1,76.5,29.87,West,272,3.0,5.0,86,0.00,,,0.00,Wunderground v.1.15,2013-07-13 01:35:00,
2013-07-12 21:45:00,81.3,77.1,29.87,West,265,5.0,5.0,87,0.00,,,0.00,Wunderground v.1.15,2013-07-13 01:45:00,
2013-07-12 21:55:00,81.2,77.0,29.87,West,273,4.0,6.0,87,0.00,,,0.00,Wunderground v.1.15,2013-07-13 01:55:00,
2013-07-12 22:00:00,81.1,76.9,29.87,WNW,293,4.0,6.0,87,0.00,,,0.00,Wunderground v.1.15,2013-07-13 02:00:00,
2013-07-12 22:05:00,81.1,76.9,29.87,WNW,286,4.0,6.0,87,0.00,,,0.00,Wunderground v.1.15,2013-07-13 02:05:00,
2013-07-12 22:10:00,81.0,76.8,29.87,WNW,284,1.0,7.0,87,0.00,,,0.00,Wunderground v.1.15,2013-07-13 02:10:00,
2013-07-12 22:20:00,81.1,76.9,29.87,WNW,290,5.0,6.0,87,0.00,,,0.00,Wunderground v.1.15,2013-07-13 02:20:00,
2013-07-12 22:25:00,81.1,76.9,29.87,WNW,296,4.0,6.0,87,0.00,,,0.00,Wunderground v.1.15,2013-07-13 02:25:00,
2013-07-12 22:35:00,81.0,76.8,29.88,West,273,1.0,4.0,87,0.00,,,0.00,Wunderground v.1.15,2013-07-13 02:35:00,
2013-07-12 22:40:00,81.0,76.8,29.88,WNW,282,0.0,0.0,87,0.00,,,0.00,Wunderground v.1.15,2013-07-13 02:40:00,
2013-07-12 22:50:00,81.1,77.2,29.88,NNW,338,1.0,1.0,88,0.00,,,0.00,Wunderground v.1.15,2013-07-13 02:50:00,
2013-07-12 22:55:00,80.6,76.7,29.88,NNW,336,0.0,4.0,88,0.00,,,0.00,Wunderground v.1.15,2013-07-13 02:55:00,
2013-07-12 23:05:00,80.0,76.5,29.88,North,9,1.0,1.0,89,0.00,,,0.00,Wunderground v.1.15,2013-07-13 03:05:00,
2013-07-12 23:10:00,79.7,76.2,29.88,North,5,1.0,1.0,89,0.00,,,0.00,Wunderground v.1.15,2013-07-13 03:10:00,
2013-07-12 23:20:00,79.3,75.8,29.89,NNW,336,1.0,1.0,89,0.00,,,0.00,Wunderground v.1.15,2013-07-13 03:20:00,
2013-07-12 23:25:00,79.0,75.1,29.89,NNW,327,1.0,1.0,88,0.00,,,0.00,Wunderground v.1.15,2013-07-13 03:25:00,
2013-07-12 23:35:00,79.2,76.0,29.89,North,11,1.0,10.0,90,0.00,,,0.00,Wunderground v.1.15,2013-07-13 03:35:00,
2013-07-12 23:40:00,79.1,75.9,29.90,North,11,5.0,7.0,90,0.00,,,0.00,Wunderground v.1.15,2013-07-13 03:40:00,
2013-07-12 23:45:00,78.9,75.4,29.90,NNE,15,8.0,8.0,89,0.00,,,0.00,Wunderground v.1.15,2013-07-13 03:45:00,
2013-07-12 23:50:00,79.0,75.5,29.90,NNE,23,7.0,7.0,89,0.00,,,0.00,Wunderground v.1.15,2013-07-13 03:50:00,
2013-07-12 23:55:00,78.9,75.4,29.90,NNE,27,7.0,8.0,89,0.00,,,0.00,Wunderground v.1.15,2013-07-13 03:55:00,